Time;durP1;ratioP1;P1;durP2;ratioP2;P2;SDS_P1;SDS_P2;PMS_P1;PMS_P2;Temp;Humidity;BMP_temperature;BMP_pressure;BME280_temperature;BME280_humidity;BME280_pressure;Samples;Min_cycle;Max_cycle;Signal;HPM_P1;HPM_P2
2023/07/06 00:00:09;;;;;;;4.00;3.60;;;17.70;1.00;;;;;;5024843;28;20446;-72
2023/07/06 00:02:36;;;;;;;3.83;3.40;;;17.70;1.00;;;;;;5029051;28;20527;-72
2023/07/06 00:05:03;;;;;;;4.23;3.40;;;17.60;1.00;;;;;;5025582;28;20596;-73
2023/07/06 00:07:32;;;;;;;4.50;3.30;;;17.50;1.00;;;;;;5021254;28;20454;-73
2023/07/06 00:09:59;;;;;;;5.33;3.40;;;17.40;1.00;;;;;;5027307;28;20508;-71
2023/07/06 00:12:26;;;;;;;4.60;3.80;;;17.30;1.00;;;;;;5021248;28;20959;-73
2023/07/06 00:14:53;;;;;;;6.53;4.10;;;17.20;1.00;;;;;;5024134;28;20457;-73
2023/07/06 00:17:21;;;;;;;6.93;6.17;;;17.10;1.00;;;;;;5024723;28;20607;-73
2023/07/06 00:19:49;;;;;;;5.13;3.63;;;17.00;1.00;;;;;;5023514;28;20474;-73
2023/07/06 00:22:16;;;;;;;4.50;3.40;;;16.90;1.00;;;;;;5024473;28;20572;-73
2023/07/06 00:24:46;;;;;;;4.93;3.90;;;16.90;1.00;;;;;;5026045;28;20454;-73
2023/07/06 00:27:15;;;;;;;5.00;3.57;;;16.80;1.00;;;;;;5021854;28;20466;-73
2023/07/06 00:29:56;;;;;;;9.10;4.90;;;16.70;1.00;;;;;;5017056;28;20461;-72
2023/07/06 00:32:27;;;;;;;7.00;4.20;;;16.60;1.00;;;;;;5015598;28;21334;-73
2023/07/06 00:34:54;;;;;;;6.67;4.00;;;16.60;1.00;;;;;;5014000;28;20450;-73
2023/07/06 00:37:22;;;;;;;7.30;5.17;;;16.50;1.00;;;;;;5018135;28;20571;-72
2023/07/06 00:39:51;;;;;;;5.57;4.17;;;16.40;1.00;;;;;;5016340;28;20898;-73
2023/07/06 00:42:19;;;;;;;4.10;3.70;;;16.40;1.00;;;;;;5017099;28;20653;-73
2023/07/06 00:44:53;;;;;;;5.23;4.30;;;16.30;1.00;;;;;;5014944;28;20461;-72
2023/07/06 00:47:30;;;;;;;6.30;4.03;;;16.30;1.00;;;;;;5023345;28;20664;-72
2023/07/06 00:50:02;;;;;;;6.30;4.27;;;16.30;1.00;;;;;;5022890;28;20477;-73
2023/07/06 00:52:30;;;;;;;5.30;4.10;;;16.20;1.00;;;;;;5026399;28;20476;-72
2023/07/06 00:55:01;;;;;;;6.50;4.20;;;16.20;1.00;;;;;;5022181;28;20516;-76
2023/07/06 00:57:30;;;;;;;4.73;4.03;;;16.10;1.00;;;;;;5021771;28;20472;-72
2023/07/06 00:59:57;;;;;;;5.80;3.77;;;16.10;1.00;;;;;;5024122;28;20477;-73
2023/07/06 01:02:28;;;;;;;10.10;5.10;;;16.00;1.00;;;;;;5014701;22;21301;-78
2023/07/06 01:04:55;;;;;;;4.37;3.80;;;16.00;1.00;;;;;;4999013;28;20458;-76
2023/07/06 01:07:31;;;;;;;3.87;3.57;;;15.90;1.00;;;;;;4995780;28;20469;-75
2023/07/06 01:10:08;;;;;;;8.50;4.33;;;15.80;1.00;;;;;;4997191;28;20484;-75
2023/07/06 01:12:36;;;;;;;4.80;4.30;;;15.70;1.00;;;;;;5008225;28;20969;-76
2023/07/06 01:15:07;;;;;;;4.10;3.70;;;15.60;1.00;;;;;;5007145;28;20576;-76
2023/07/06 01:17:45;;;;;;;6.00;4.30;;;15.60;1.00;;;;;;5004740;28;20520;-76
2023/07/06 01:20:21;;;;;;;4.60;4.10;;;15.60;1.00;;;;;;5000779;28;20570;-77
2023/07/06 01:23:24;;;;;;;5.13;3.90;;;15.60;1.00;;;;;;5005761;28;20515;-77
2023/07/06 01:26:09;;;;;;;4.93;3.53;;;15.70;1.00;;;;;;5007705;28;20988;-77
2023/07/06 01:29:08;;;;;;;6.70;4.00;;;15.80;1.00;;;;;;4995627;28;20571;-76
2023/07/06 01:31:46;;;;;;;6.13;4.00;;;15.80;1.00;;;;;;5002721;28;20634;-77
2023/07/06 01:34:21;;;;;;;5.83;4.60;;;15.90;1.00;;;;;;5009458;28;20485;-77
2023/07/06 01:36:54;;;;;;;4.87;4.23;;;15.90;1.00;;;;;;5009476;28;21366;-76
2023/07/06 01:39:26;;;;;;;4.70;3.97;;;15.90;1.00;;;;;;5007083;28;20464;-75
2023/07/06 01:42:30;;;;;;;5.80;4.33;;;15.90;1.00;;;;;;5006173;28;20477;-75
2023/07/06 01:45:02;;;;;;;4.60;4.20;;;15.90;1.00;;;;;;5005396;28;20553;-76
2023/07/06 01:47:37;;;;;;;6.10;3.90;;;15.80;1.00;;;;;;4998802;28;20601;-76
2023/07/06 01:50:09;;;;;;;5.80;5.30;;;15.70;1.00;;;;;;4998176;28;20473;-76
2023/07/06 01:52:48;;;;;;;6.27;4.23;;;15.70;1.00;;;;;;5000171;28;20968;-76
2023/07/06 01:55:21;;;;;;;6.30;4.60;;;15.70;1.00;;;;;;4999675;28;20612;-76
2023/07/06 01:58:07;;;;;;;4.50;4.10;;;15.70;1.00;;;;;;5008627;28;20941;-76
2023/07/06 02:00:36;;;;;;;4.60;4.10;;;15.80;1.00;;;;;;5005423;28;20945;-77
2023/07/06 02:03:06;;;;;;;5.73;4.70;;;15.80;1.00;;;;;;5009701;28;20987;-76
2023/07/06 02:05:36;;;;;;;4.80;4.30;;;15.70;1.00;;;;;;5007027;28;20493;-77
2023/07/06 02:08:07;;;;;;;6.70;4.50;;;15.60;1.00;;;;;;5006597;28;20548;-76
2023/07/06 02:10:34;;;;;;;5.97;4.47;;;15.60;1.00;;;;;;4999898;28;21247;-75
2023/07/06 02:13:03;;;;;;;6.47;4.20;;;15.50;1.00;;;;;;5000321;28;20877;-75
2023/07/06 02:15:32;;;;;;;5.13;4.57;;;15.50;1.00;;;;;;4998800;28;21036;-75
2023/07/06 02:18:02;;;;;;;5.20;4.70;;;15.40;1.00;;;;;;4999245;28;20495;-76
2023/07/06 02:20:31;;;;;;;7.67;4.50;;;15.40;1.00;;;;;;5001165;28;20472;-77
2023/07/06 02:23:01;;;;;;;4.70;4.27;;;15.40;1.00;;;;;;5009111;28;20560;-77
2023/07/06 02:25:30;;;;;;;5.97;4.50;;;15.40;1.00;;;;;;5009300;28;20472;-76
2023/07/06 02:27:57;;;;;;;4.40;4.00;;;15.50;1.00;;;;;;5006696;28;20573;-75
2023/07/06 02:30:24;;;;;;;6.87;4.60;;;15.60;1.00;;;;;;5009847;28;20481;-76
2023/07/06 02:32:52;;;;;;;7.70;4.90;;;15.60;1.00;;;;;;5012475;28;21010;-77
2023/07/06 02:35:19;;;;;;;4.87;4.43;;;15.60;1.00;;;;;;5005762;28;21321;-77
2023/07/06 02:37:52;;;;;;;5.13;4.63;;;15.60;1.00;;;;;;5001207;28;20482;-76
2023/07/06 02:40:22;;;;;;;5.67;5.07;;;15.60;1.00;;;;;;5001676;28;20458;-75
2023/07/06 02:42:49;;;;;;;5.80;4.87;;;15.50;1.00;;;;;;5010072;28;20469;-75
2023/07/06 02:45:17;;;;;;;7.23;5.50;;;15.50;1.00;;;;;;4991810;28;20462;-75
2023/07/06 02:47:45;;;;;;;5.60;4.63;;;15.40;1.00;;;;;;5013385;28;21226;-75
2023/07/06 02:50:12;;;;;;;7.17;4.40;;;15.20;1.00;;;;;;5009134;28;20469;-76
2023/07/06 02:52:39;;;;;;;7.70;6.83;;;15.20;1.00;;;;;;5010642;28;20445;-76
2023/07/06 02:55:09;;;;;;;6.03;4.93;;;15.10;1.00;;;;;;5011942;28;20476;-76
2023/07/06 02:57:39;;;;;;;5.00;4.37;;;15.10;1.00;;;;;;5008248;28;21071;-75
2023/07/06 03:00:13;;;;;;;5.10;4.60;;;15.00;1.00;;;;;;5009127;28;20977;-76
2023/07/06 03:02:40;;;;;;;7.87;5.57;;;15.10;1.00;;;;;;5009029;28;20960;-77
2023/07/06 03:05:08;;;;;;;5.53;4.77;;;15.10;1.00;;;;;;5008548;28;20922;-76
2023/07/06 03:07:35;;;;;;;10.30;5.90;;;15.10;1.00;;;;;;5003547;28;20460;-76
2023/07/06 03:10:05;;;;;;;5.60;4.87;;;15.10;1.00;;;;;;5007663;28;20469;-76
2023/07/06 03:12:37;;;;;;;8.37;5.00;;;15.00;1.00;;;;;;5001247;28;20954;-77
2023/07/06 03:15:05;;;;;;;11.20;4.93;;;15.00;1.00;;;;;;5012836;28;20465;-77
2023/07/06 03:17:32;;;;;;;5.97;4.97;;;14.90;1.00;;;;;;5007449;28;20540;-77
2023/07/06 03:19:59;;;;;;;9.73;5.60;;;14.90;1.00;;;;;;5010746;28;20468;-76
2023/07/06 03:22:30;;;;;;;7.93;5.47;;;14.90;1.00;;;;;;5006552;28;20485;-77
2023/07/06 03:25:00;;;;;;;6.70;6.00;;;14.90;1.00;;;;;;5004473;28;20463;-77
2023/07/06 03:27:28;;;;;;;11.50;6.53;;;14.80;1.00;;;;;;5006723;28;20500;-77
2023/07/06 03:29:56;;;;;;;6.00;5.40;;;14.80;1.00;;;;;;4997079;28;20462;-77
2023/07/06 03:32:25;;;;;;;7.50;6.83;;;14.80;1.00;;;;;;5001313;28;20489;-76
2023/07/06 03:34:52;;;;;;;9.27;6.13;;;14.80;1.00;;;;;;5012084;28;20530;-77
2023/07/06 03:37:21;;;;;;;8.83;7.40;;;14.70;1.00;;;;;;4999003;28;20525;-77
2023/07/06 03:39:50;;;;;;;5.87;5.30;;;14.70;1.00;;;;;;4995385;28;20478;-75
2023/07/06 03:42:18;;;;;;;6.80;6.03;;;14.80;1.00;;;;;;5001226;28;20492;-77
2023/07/06 03:44:48;;;;;;;8.60;6.07;;;14.80;1.00;;;;;;5006995;28;20461;-76
2023/07/06 03:47:16;;;;;;;9.27;6.00;;;14.80;1.00;;;;;;5003909;28;20452;-77
2023/07/06 03:49:44;;;;;;;5.70;5.20;;;14.80;1.00;;;;;;5003659;28;20557;-77
2023/07/06 03:52:19;;;;;;;7.90;5.50;;;14.90;1.00;;;;;;5002394;28;20492;-76
2023/07/06 03:54:48;;;;;;;7.10;5.60;;;15.00;1.00;;;;;;5014446;28;20459;-76
2023/07/06 03:57:17;;;;;;;5.77;5.00;;;15.00;1.00;;;;;;5001048;28;20521;-76
2023/07/06 03:59:50;;;;;;;6.30;4.90;;;15.10;1.00;;;;;;5006082;28;20460;-76
2023/07/06 04:02:20;;;;;;;6.40;5.10;;;15.20;1.00;;;;;;5003936;28;21024;-76
2023/07/06 04:04:48;;;;;;;5.93;4.80;;;15.20;1.00;;;;;;4998002;28;20509;-76
2023/07/06 04:07:18;;;;;;;5.70;5.20;;;15.20;1.00;;;;;;4998744;28;20457;-76
2023/07/06 04:09:45;;;;;;;6.37;5.27;;;15.30;1.00;;;;;;5000477;28;20465;-76
2023/07/06 04:12:13;;;;;;;7.80;5.10;;;15.30;1.00;;;;;;4999798;28;20497;-76
2023/07/06 04:14:40;;;;;;;5.17;4.73;;;15.40;1.00;;;;;;5003492;28;20466;-76
2023/07/06 04:17:09;;;;;;;6.40;5.17;;;15.30;1.00;;;;;;5006564;28;20550;-77
2023/07/06 04:19:38;;;;;;;7.17;5.67;;;15.30;1.00;;;;;;5003474;28;21141;-76
2023/07/06 04:22:06;;;;;;;8.90;5.83;;;15.30;1.00;;;;;;5006182;28;20469;-76
2023/07/06 04:24:34;;;;;;;7.50;6.50;;;15.30;1.00;;;;;;5005484;28;20440;-76
2023/07/06 04:27:01;;;;;;;8.20;6.00;;;15.40;1.00;;;;;;5005973;28;20466;-77
2023/07/06 04:29:29;;;;;;;6.10;5.13;;;15.40;1.00;;;;;;5000698;28;20942;-75
2023/07/06 04:31:57;;;;;;;6.13;5.63;;;15.40;1.00;;;;;;5008475;28;20667;-76
2023/07/06 04:34:25;;;;;;;8.30;6.57;;;15.50;1.00;;;;;;5002989;28;20960;-76
2023/07/06 04:36:54;;;;;;;5.77;4.93;;;15.50;1.00;;;;;;5004823;28;20461;-76
2023/07/06 04:39:21;;;;;;;6.57;5.90;;;15.60;1.00;;;;;;5005283;28;20484;-76
2023/07/06 04:41:49;;;;;;;9.30;5.70;;;15.60;1.00;;;;;;5009300;28;21084;-74
2023/07/06 04:44:18;;;;;;;7.93;6.40;;;15.60;1.00;;;;;;5002515;28;20476;-76
2023/07/06 04:46:45;;;;;;;6.93;5.90;;;15.70;1.00;;;;;;5004730;28;20986;-76
2023/07/06 04:49:12;;;;;;;6.57;5.27;;;15.80;1.00;;;;;;5006669;28;20496;-77
2023/07/06 04:51:41;;;;;;;7.17;5.87;;;15.90;1.00;;;;;;5008341;28;21805;-77
2023/07/06 04:54:09;;;;;;;8.80;6.53;;;15.80;1.00;;;;;;5004224;28;20553;-76
2023/07/06 04:56:39;;;;;;;7.97;5.80;;;15.80;1.00;;;;;;5011729;28;20983;-76
2023/07/06 04:59:06;;;;;;;6.00;5.50;;;16.00;1.00;;;;;;5008269;28;20480;-76
2023/07/06 05:11:30;;;;;;;4.57;4.10;;;16.30;1.00;;;;;;4902155;28;20408;-77
2023/07/06 05:13:58;;;;;;;6.47;5.87;;;16.50;1.00;;;;;;5015660;28;20481;-77
2023/07/06 05:16:28;;;;;;;13.63;4.73;;;16.50;1.00;;;;;;5002169;28;20969;-77
2023/07/06 05:18:55;;;;;;;5.10;4.70;;;16.60;1.00;;;;;;5016082;28;20524;-77
2023/07/06 05:21:26;;;;;;;5.17;4.53;;;16.70;1.00;;;;;;4983094;28;21044;-78
2023/07/06 05:23:56;;;;;;;7.23;5.67;;;16.80;1.00;;;;;;5008997;28;20485;-78
2023/07/06 05:26:43;;;;;;;8.03;5.20;;;16.90;1.00;;;;;;4982850;28;20490;-78
2023/07/06 05:29:32;;;;;;;6.53;5.73;;;17.00;1.00;;;;;;5017438;28;20474;-78
2023/07/06 05:32:12;;;;;;;5.40;4.30;;;17.10;1.00;;;;;;5008353;28;20496;-76
2023/07/06 05:34:54;;;;;;;4.93;3.53;;;17.10;1.00;;;;;;5003169;28;20472;-77
2023/07/06 05:37:21;;;;;;;6.90;4.50;;;17.20;1.00;;;;;;5012588;28;20487;-78
2023/07/06 05:39:51;;;;;;;4.90;3.83;;;17.30;1.00;;;;;;5011594;28;20869;-78
2023/07/06 05:42:25;;;;;;;6.10;4.47;;;17.40;1.00;;;;;;5007415;28;21861;-79
2023/07/06 05:44:52;;;;;;;7.73;3.90;;;17.50;1.00;;;;;;4998515;28;21044;-77
2023/07/06 05:47:23;;;;;;;6.60;3.83;;;17.50;1.00;;;;;;5011727;28;20839;-77
2023/07/06 05:49:51;;;;;;;6.30;4.30;;;17.50;1.00;;;;;;5005294;28;20461;-77
2023/07/06 05:52:21;;;;;;;5.50;3.90;;;17.60;1.00;;;;;;4993650;28;20877;-77
2023/07/06 05:54:50;;;;;;;5.27;4.40;;;17.70;1.00;;;;;;5019076;28;20542;-79
2023/07/06 05:57:19;;;;;;;5.13;4.13;;;17.70;1.00;;;;;;5001873;28;20553;-77
2023/07/06 05:59:48;;;;;;;5.97;4.07;;;17.90;1.00;;;;;;5015262;28;20470;-77
2023/07/06 06:02:20;;;;;;;4.37;3.97;;;18.00;1.00;;;;;;5000228;28;20463;-79
2023/07/06 06:04:48;;;;;;;7.33;3.83;;;18.10;1.00;;;;;;5009214;28;20482;-77
2023/07/06 06:07:18;;;;;;;6.47;3.90;;;18.20;1.00;;;;;;5000767;28;20460;-78
2023/07/06 06:09:45;;;;;;;7.93;4.07;;;18.20;1.00;;;;;;5013945;28;20565;-78
2023/07/06 06:12:18;;;;;;;7.90;4.27;;;18.30;1.00;;;;;;4998760;28;20972;-78
2023/07/06 06:14:48;;;;;;;4.77;3.90;;;18.40;1.00;;;;;;5009366;28;20483;-78
2023/07/06 06:17:19;;;;;;;4.37;3.30;;;18.50;1.00;;;;;;5015073;28;20957;-78
2023/07/06 06:19:46;;;;;;;6.40;3.83;;;18.60;1.00;;;;;;5054867;22;21062;-78
2023/07/06 06:22:14;;;;;;;4.50;3.70;;;18.80;1.00;;;;;;5014644;28;20495;-78
2023/07/06 06:24:42;;;;;;;6.60;3.57;;;18.80;1.00;;;;;;5011172;28;20921;-79
2023/07/06 06:27:11;;;;;;;6.60;3.67;;;18.90;1.00;;;;;;5007613;28;20479;-76
2023/07/06 06:29:39;;;;;;;5.40;3.27;;;19.00;1.00;;;;;;5003667;28;20592;-77
2023/07/06 06:32:09;;;;;;;4.63;3.83;;;18.90;1.00;;;;;;5000081;28;20485;-76
2023/07/06 06:34:36;;;;;;;3.40;3.10;;;19.00;1.00;;;;;;5002391;28;20625;-77
2023/07/06 06:37:04;;;;;;;7.87;4.10;;;18.90;1.00;;;;;;5020993;28;20552;-77
2023/07/06 06:39:31;;;;;;;4.40;3.90;;;19.00;1.00;;;;;;5014492;28;20490;-78
2023/07/06 06:42:00;;;;;;;3.40;3.10;;;19.00;1.00;;;;;;5006687;28;21009;-78
2023/07/06 06:44:28;;;;;;;4.60;3.03;;;19.10;1.00;;;;;;5004951;28;20506;-77
2023/07/06 06:46:58;;;;;;;4.50;2.80;;;19.10;1.00;;;;;;4995410;28;20938;-76
2023/07/06 06:49:27;;;;;;;4.87;3.40;;;19.10;1.00;;;;;;5000488;28;20490;-76
2023/07/06 06:51:54;;;;;;;3.30;2.90;;;19.10;1.00;;;;;;5011013;28;20461;-76
2023/07/06 06:54:21;;;;;;;5.97;3.40;;;19.10;1.00;;;;;;4995455;28;20501;-75
2023/07/06 06:56:49;;;;;;;2.90;2.70;;;19.20;1.00;;;;;;5005635;28;20479;-77
2023/07/06 06:59:16;;;;;;;3.63;2.60;;;19.20;1.00;;;;;;5010851;28;20570;-77
2023/07/06 07:01:43;;;;;;;3.60;2.73;;;19.20;1.00;;;;;;4995568;28;20495;-76
2023/07/06 07:04:10;;;;;;;3.83;3.43;;;19.10;1.00;;;;;;4989027;28;20477;-77
2023/07/06 07:06:39;;;;;;;5.43;2.40;;;19.10;1.00;;;;;;4988402;28;20456;-77
2023/07/06 07:09:09;;;;;;;3.00;2.70;;;19.20;1.00;;;;;;5003921;28;20910;-77
2023/07/06 07:11:37;;;;;;;3.27;2.97;;;19.20;1.00;;;;;;5000071;28;20475;-77
2023/07/06 07:14:07;;;;;;;3.87;2.50;;;19.30;1.00;;;;;;4993578;28;20580;-77
2023/07/06 07:16:36;;;;;;;3.30;2.90;;;19.40;1.00;;;;;;4988929;28;20481;-74
2023/07/06 07:19:05;;;;;;;5.73;3.50;;;19.40;1.00;;;;;;4987634;28;20484;-77
2023/07/06 07:21:33;;;;;;;3.20;2.90;;;19.50;1.00;;;;;;4988723;28;20530;-76
2023/07/06 07:24:01;;;;;;;3.50;2.60;;;19.60;1.00;;;;;;4994211;28;20552;-76
2023/07/06 07:26:29;;;;;;;6.10;4.00;;;19.70;1.00;;;;;;4992778;28;20450;-77
2023/07/06 07:28:56;;;;;;;5.60;4.00;;;19.80;1.00;;;;;;5004295;28;20437;-78
2023/07/06 07:31:25;;;;;;;4.90;3.47;;;19.90;1.00;;;;;;5005935;28;20463;-78
2023/07/06 07:33:52;;;;;;;3.80;2.87;;;20.10;1.00;;;;;;5006691;28;20531;-77
2023/07/06 07:36:21;;;;;;;3.77;2.90;;;20.20;1.00;;;;;;5008592;28;20469;-80
2023/07/06 07:38:49;;;;;;;7.07;3.50;;;20.30;1.00;;;;;;5000684;28;20479;-77
2023/07/06 07:41:19;;;;;;;3.37;2.93;;;20.40;1.00;;;;;;5005390;28;20905;-76
2023/07/06 07:43:48;;;;;;;4.67;3.10;;;20.30;1.00;;;;;;4998764;28;20928;-76
2023/07/06 07:46:17;;;;;;;4.40;2.90;;;20.30;1.00;;;;;;5006428;28;20457;-76
2023/07/06 07:48:47;;;;;;;3.20;2.90;;;20.30;1.00;;;;;;4992889;28;20493;-76
2023/07/06 07:51:16;;;;;;;6.57;3.70;;;20.40;1.00;;;;;;4993212;28;20497;-75
2023/07/06 07:53:44;;;;;;;6.87;3.10;;;20.50;1.00;;;;;;4989331;28;20597;-74
2023/07/06 07:56:12;;;;;;;6.57;3.50;;;20.80;1.00;;;;;;4999034;28;21033;-75
2023/07/06 07:58:40;;;;;;;6.13;2.70;;;21.00;1.00;;;;;;4993048;28;20621;-74
2023/07/06 08:01:10;;;;;;;2.40;2.20;;;21.10;1.00;;;;;;4993454;28;20561;-75
2023/07/06 08:03:37;;;;;;;3.90;2.50;;;21.20;1.00;;;;;;4995248;28;20937;-74
2023/07/06 08:06:06;;;;;;;3.47;3.13;;;21.20;1.00;;;;;;4997772;28;20690;-74
2023/07/06 08:08:36;;;;;;;2.77;2.53;;;21.30;1.00;;;;;;5005197;28;20952;-75
2023/07/06 08:11:06;;;;;;;2.50;2.30;;;21.30;1.00;;;;;;4996443;28;20895;-74
2023/07/06 08:13:33;;;;;;;3.93;2.90;;;21.50;1.00;;;;;;4997895;28;20987;-75
2023/07/06 08:16:03;;;;;;;3.83;2.50;;;21.80;1.00;;;;;;5001153;28;20552;-77
2023/07/06 08:18:31;;;;;;;3.40;2.40;;;21.90;1.00;;;;;;5003864;28;20559;-75
2023/07/06 08:21:00;;;;;;;3.73;2.30;;;22.00;1.00;;;;;;5001256;28;20465;-77
2023/07/06 08:23:29;;;;;;;2.43;1.90;;;22.00;1.00;;;;;;5001572;28;20476;-77
2023/07/06 08:25:57;;;;;;;2.60;2.13;;;21.90;1.00;;;;;;5008468;28;20468;-76
2023/07/06 08:28:28;;;;;;;3.83;2.50;;;21.90;1.00;;;;;;5007295;28;20463;-75
2023/07/06 08:30:56;;;;;;;2.47;2.07;;;22.20;1.00;;;;;;5012299;28;20548;-75
2023/07/06 08:33:25;;;;;;;4.60;2.53;;;22.50;1.00;;;;;;5006782;28;20490;-75
2023/07/06 08:35:52;;;;;;;3.30;3.00;;;22.60;1.00;;;;;;5006156;28;20561;-75
2023/07/06 08:38:19;;;;;;;4.27;2.27;;;22.60;1.00;;;;;;5012568;28;20472;-73
2023/07/06 08:40:51;;;;;;;3.47;2.43;;;22.70;1.00;;;;;;5012620;28;20487;-73
2023/07/06 08:43:21;;;;;;;4.70;2.60;;;22.70;1.00;;;;;;5002276;28;20466;-74
2023/07/06 08:45:53;;;;;;;2.97;2.67;;;22.80;1.00;;;;;;5011630;28;20442;-73
2023/07/06 08:48:25;;;;;;;2.67;2.47;;;22.90;1.00;;;;;;4996682;28;20461;-75
2023/07/06 08:50:57;;;;;;;2.30;2.10;;;22.70;1.00;;;;;;4994305;28;20604;-76
2023/07/06 08:53:28;;;;;;;2.63;2.40;;;22.70;1.00;;;;;;5001074;28;20573;-76
2023/07/06 08:55:56;;;;;;;2.53;2.30;;;22.70;1.00;;;;;;5003734;28;20812;-75
2023/07/06 08:58:27;;;;;;;3.53;3.23;;;22.80;1.00;;;;;;5003159;28;20874;-75
2023/07/06 09:01:01;;;;;;;4.47;2.77;;;22.80;1.00;;;;;;4999591;28;20462;-75
2023/07/06 09:03:34;;;;;;;4.00;2.50;;;23.00;1.00;;;;;;5002401;28;20514;-76
2023/07/06 09:06:03;;;;;;;2.40;2.20;;;23.00;1.00;;;;;;5002987;28;20561;-75
2023/07/06 09:08:30;;;;;;;3.70;2.50;;;22.90;1.00;;;;;;5001386;28;20502;-75
2023/07/06 09:10:57;;;;;;;2.37;2.13;;;23.00;1.00;;;;;;5002475;28;20466;-77
2023/07/06 09:13:26;;;;;;;2.57;2.37;;;23.20;1.00;;;;;;5005634;28;20479;-76
2023/07/06 09:15:57;;;;;;;2.40;2.20;;;23.40;1.00;;;;;;4996561;28;20546;-77
2023/07/06 09:18:24;;;;;;;5.20;2.57;;;23.60;1.00;;;;;;4998486;28;20562;-77
2023/07/06 09:20:51;;;;;;;2.93;2.40;;;23.60;1.00;;;;;;5006863;28;20617;-76
2023/07/06 09:23:20;;;;;;;3.67;3.37;;;23.70;1.00;;;;;;5009139;28;20582;-76
2023/07/06 09:25:49;;;;;;;2.43;2.23;;;23.80;1.00;;;;;;5005453;28;20459;-75
2023/07/06 09:28:23;;;;;;;2.83;1.87;;;24.10;1.00;;;;;;5004678;28;20467;-74
2023/07/06 09:31:05;;;;;;;1.90;1.80;;;24.20;1.00;;;;;;5003026;28;20467;-75
2023/07/06 09:33:32;;;;;;;3.80;2.23;;;24.20;1.00;;;;;;5002974;28;21244;-75
2023/07/06 09:36:00;;;;;;;1.90;1.80;;;24.20;1.00;;;;;;5004320;28;20459;-75
2023/07/06 09:38:32;;;;;;;2.60;2.40;;;24.40;1.00;;;;;;5004625;28;20487;-76
2023/07/06 09:41:01;;;;;;;2.60;2.10;;;24.00;1.00;;;;;;5004737;28;20464;-75
2023/07/06 09:43:30;;;;;;;2.90;1.80;;;23.70;1.00;;;;;;4998912;28;20845;-75
2023/07/06 09:46:00;;;;;;;3.80;2.80;;;23.80;1.00;;;;;;5006997;28;20879;-75
2023/07/06 09:48:32;;;;;;;2.40;2.20;;;24.90;1.00;;;;;;5005235;28;20473;-75
2023/07/06 09:51:06;;;;;;;2.57;2.10;;;27.10;1.00;;;;;;5003908;28;20543;-77
2023/07/06 09:53:40;;;;;;;2.87;1.87;;;28.00;1.00;;;;;;5004717;28;20491;-76
2023/07/06 09:56:11;;;;;;;3.13;2.30;;;28.60;1.00;;;;;;4997432;28;20619;-76
2023/07/06 09:58:38;;;;;;;3.00;2.70;;;29.30;1.00;;;;;;5000912;28;20464;-75
2023/07/06 10:01:17;;;;;;;2.20;2.00;;;30.30;1.00;;;;;;4986469;28;20606;-75
2023/07/06 10:03:53;;;;;;;2.40;1.87;;;30.60;1.00;;;;;;4988455;28;20477;-75
2023/07/06 10:06:35;;;;;;;3.53;1.90;;;31.40;1.00;;;;;;5008925;28;20662;-76
2023/07/06 10:09:14;;;;;;;2.73;2.20;;;32.40;1.00;;;;;;5003413;28;20558;-75
2023/07/06 10:11:50;;;;;;;2.27;2.10;;;31.90;1.00;;;;;;4999207;28;20508;-76
2023/07/06 10:14:25;;;;;;;2.10;1.90;;;31.60;1.00;;;;;;4992083;28;20601;-76
2023/07/06 10:17:03;;;;;;;2.00;1.80;;;31.80;1.00;;;;;;4995449;28;20462;-75
2023/07/06 10:19:36;;;;;;;3.43;1.80;;;31.00;1.00;;;;;;4992786;28;21104;-75
2023/07/06 10:22:15;;;;;;;3.00;2.10;;;30.20;1.00;;;;;;5000125;28;20442;-74
2023/07/06 10:24:51;;;;;;;3.80;3.50;;;28.80;1.00;;;;;;4992325;28;20440;-73
2023/07/06 10:27:22;;;;;;;2.40;2.20;;;27.80;1.00;;;;;;4996887;28;20477;-77
2023/07/06 10:29:52;;;;;;;2.60;2.37;;;26.90;1.00;;;;;;4999145;28;20468;-75
2023/07/06 10:32:24;;;;;;;3.17;2.20;;;26.20;1.00;;;;;;4989616;28;20476;-74
2023/07/06 10:34:56;;;;;;;2.43;2.23;;;25.70;1.00;;;;;;4992693;28;20481;-74
2023/07/06 10:37:27;;;;;;;2.90;2.40;;;25.10;1.00;;;;;;4996495;28;20597;-74
2023/07/06 10:40:16;;;;;;;2.03;1.83;;;25.40;1.00;;;;;;4993046;28;20556;-74
2023/07/06 10:42:48;;;;;;;2.23;2.03;;;27.10;1.00;;;;;;4997350;28;20481;-75
2023/07/06 10:45:41;;;;;;;3.40;2.40;;;28.20;1.00;;;;;;4996074;28;21110;-76
2023/07/06 10:48:13;;;;;;;4.23;2.30;;;30.40;1.00;;;;;;4988622;28;20470;-75
2023/07/06 10:50:52;;;;;;;2.10;1.97;;;32.10;1.00;;;;;;4990396;28;20458;-74
2023/07/06 10:53:24;;;;;;;3.90;3.57;;;33.20;1.00;;;;;;4995835;28;20491;-74
2023/07/06 10:56:15;;;;;;;2.27;2.07;;;33.70;1.00;;;;;;4998597;28;20482;-74
2023/07/06 10:58:49;;;;;;;2.27;1.90;;;34.20;1.00;;;;;;5017496;28;20588;-76
2023/07/06 11:01:19;;;;;;;2.30;2.10;;;33.30;1.00;;;;;;5000697;28;20450;-75
2023/07/06 11:03:47;;;;;;;2.80;2.57;;;32.30;1.00;;;;;;5000398;28;20544;-75
2023/07/06 11:06:20;;;;;;;2.47;2.27;;;32.80;1.00;;;;;;4998385;28;20973;-75
2023/07/06 11:09:13;;;;;;;2.40;2.20;;;33.80;1.00;;;;;;5009260;28;21051;-75
2023/07/06 11:11:44;;;;;;;3.43;2.27;;;34.50;1.00;;;;;;4994486;28;20465;-76
2023/07/06 11:14:24;;;;;;;4.67;2.20;;;35.90;1.00;;;;;;5001896;28;20962;-76
2023/07/06 11:16:56;;;;;;;2.40;2.20;;;36.10;1.00;;;;;;4993863;28;20890;-76
2023/07/06 11:19:29;;;;;;;3.10;2.40;;;34.60;1.00;;;;;;4995494;28;20454;-76
2023/07/06 11:22:03;;;;;;;2.90;2.30;;;33.20;1.00;;;;;;5006425;28;20929;-76
2023/07/06 11:24:39;;;;;;;2.60;2.30;;;33.10;1.00;;;;;;5006142;28;21363;-76
2023/07/06 11:27:26;;;;;;;2.53;2.33;;;33.70;1.00;;;;;;5005811;28;20648;-77
2023/07/06 11:30:10;;;;;;;3.87;2.20;;;33.20;1.00;;;;;;5007587;28;20548;-75
2023/07/06 11:32:43;;;;;;;3.60;1.93;;;32.20;1.00;;;;;;5004876;28;20458;-75
2023/07/06 11:35:24;;;;;;;2.90;2.30;;;32.00;1.00;;;;;;5007304;28;21199;-77
2023/07/06 11:38:02;;;;;;;2.90;2.40;;;31.30;1.00;;;;;;5005801;28;20596;-76
2023/07/06 11:40:41;;;;;;;1.87;1.67;;;31.20;1.00;;;;;;5005710;28;20461;-77
2023/07/06 11:43:30;;;;;;;5.50;5.00;;;33.20;1.00;;;;;;5000111;28;20453;-75
2023/07/06 11:46:08;;;;;;;3.00;2.00;;;34.80;1.00;;;;;;5004688;28;20474;-77
2023/07/06 11:48:45;;;;;;;2.03;1.93;;;33.90;1.00;;;;;;5004907;28;20549;-78
2023/07/06 11:51:13;;;;;;;5.77;5.47;;;32.60;1.00;;;;;;4991550;28;20454;-75
2023/07/06 11:53:44;;;;;;;2.63;2.40;;;31.30;1.00;;;;;;4996026;28;20500;-75
2023/07/06 11:56:32;;;;;;;2.27;2.07;;;30.20;1.00;;;;;;4990925;28;20446;-75
2023/07/06 11:59:04;;;;;;;2.50;2.30;;;29.10;1.00;;;;;;4991263;28;20502;-75
2023/07/06 12:01:42;;;;;;;2.00;1.87;;;28.00;1.00;;;;;;4995587;28;20468;-76
2023/07/06 12:04:15;;;;;;;6.77;2.80;;;27.40;1.00;;;;;;4989680;28;20448;-76
2023/07/06 12:06:43;;;;;;;8.70;3.17;;;26.90;1.00;;;;;;4989434;28;20443;-77
2023/07/06 12:09:18;;;;;;;2.80;2.33;;;26.40;1.00;;;;;;4997574;28;20477;-77
2023/07/06 12:11:48;;;;;;;6.30;2.80;;;26.00;1.00;;;;;;4991164;28;20452;-76
2023/07/06 12:14:20;;;;;;;3.10;2.50;;;25.50;1.00;;;;;;4989680;28;20482;-75
2023/07/06 12:16:50;;;;;;;2.63;2.30;;;25.10;1.00;;;;;;4993645;28;20558;-75
2023/07/06 12:19:18;;;;;;;2.53;2.33;;;24.90;1.00;;;;;;4990799;28;20903;-74
2023/07/06 12:21:50;;;;;;;2.43;2.20;;;24.90;1.00;;;;;;4986682;28;20459;-75
2023/07/06 12:24:20;;;;;;;2.67;2.47;;;25.00;1.00;;;;;;4990804;28;20466;-74
2023/07/06 12:26:50;;;;;;;4.77;2.77;;;25.20;1.00;;;;;;4992377;28;20837;-75
2023/07/06 12:29:23;;;;;;;3.53;2.30;;;25.40;1.00;;;;;;4988468;28;20483;-74
2023/07/06 12:31:51;;;;;;;3.50;3.20;;;26.30;1.00;;;;;;4988464;28;20461;-74
2023/07/06 12:34:21;;;;;;;3.60;2.40;;;29.00;1.00;;;;;;4989965;28;21431;-74
2023/07/06 12:36:50;;;;;;;3.47;2.50;;;31.10;1.00;;;;;;4987536;28;20536;-75
2023/07/06 12:39:21;;;;;;;2.67;2.17;;;32.40;1.00;;;;;;4987575;28;20552;-74
2023/07/06 12:41:51;;;;;;;1.93;1.83;;;32.90;1.00;;;;;;4992758;28;20490;-75
2023/07/06 12:44:22;;;;;;;2.50;2.30;;;33.70;1.00;;;;;;4983705;28;20469;-75
2023/07/06 12:46:51;;;;;;;1.83;1.73;;;34.90;1.00;;;;;;4988143;28;21035;-76
2023/07/06 12:49:22;;;;;;;3.30;2.17;;;35.40;1.00;;;;;;4987516;28;20468;-75
2023/07/06 12:51:54;;;;;;;1.70;1.60;;;36.40;1.00;;;;;;4995603;28;20577;-75
2023/07/06 12:54:24;;;;;;;2.30;2.03;;;37.10;1.00;;;;;;4991331;28;20666;-75
2023/07/06 12:56:59;;;;;;;2.80;2.50;;;37.40;1.00;;;;;;4990101;28;20545;-75
2023/07/06 12:59:33;;;;;;;2.37;2.17;;;37.80;1.00;;;;;;4986924;28;20465;-75
2023/07/06 13:02:00;;;;;;;2.53;2.23;;;37.80;1.00;;;;;;4992387;28;20458;-74
2023/07/06 13:04:43;;;;;;;2.00;1.90;;;38.20;1.00;;;;;;4990266;28;20550;-75
2023/07/06 13:07:10;;;;;;;1.83;1.73;;;38.90;1.00;;;;;;4989017;28;20926;-75
2023/07/06 13:09:38;;;;;;;2.57;2.37;;;38.80;1.00;;;;;;5000656;28;21017;-77
2023/07/06 13:12:09;;;;;;;2.27;2.10;;;38.40;1.00;;;;;;4990217;28;20450;-77
2023/07/06 13:14:40;;;;;;;3.30;3.00;;;38.00;1.00;;;;;;4992968;28;21151;-77
2023/07/06 13:17:14;;;;;;;4.13;2.50;;;36.80;1.00;;;;;;4995248;28;20442;-76
2023/07/06 13:19:41;;;;;;;3.53;2.73;;;35.00;1.00;;;;;;4995624;28;20457;-77
2023/07/06 13:22:12;;;;;;;2.30;2.10;;;33.30;1.00;;;;;;5009745;28;20449;-78
2023/07/06 13:24:40;;;;;;;2.70;2.50;;;32.20;1.00;;;;;;5008840;28;20905;-76
2023/07/06 13:27:12;;;;;;;4.50;3.07;;;31.20;1.00;;;;;;5007216;28;20885;-78